createdAt,value
2022-10-26T00:01:12.928Z,99.90
2022-10-26T00:03:42.707Z,99.90
2022-10-26T00:06:13.751Z,99.90
2022-10-26T00:08:41.282Z,99.90
2022-10-26T00:11:09.732Z,99.90
2022-10-26T00:13:37.577Z,99.90
2022-10-26T00:16:23.383Z,99.90
2022-10-26T00:18:50.636Z,99.90
2022-10-26T00:21:18.007Z,99.90
2022-10-26T00:23:44.848Z,99.90
2022-10-26T00:26:12.006Z,99.90
2022-10-26T00:28:38.856Z,99.90
2022-10-26T00:31:14.487Z,99.90
2022-10-26T00:33:42.008Z,99.90
2022-10-26T00:36:10.284Z,99.90
2022-10-26T00:38:38.171Z,99.90
2022-10-26T00:41:05.226Z,99.90
2022-10-26T00:43:31.859Z,99.90
2022-10-26T00:46:01.901Z,99.90
2022-10-26T00:48:40.088Z,99.90
2022-10-26T00:51:18.833Z,99.90
2022-10-26T00:53:46.175Z,99.90
2022-10-26T00:56:13.219Z,99.90
2022-10-26T00:58:41.365Z,99.90
2022-10-26T01:01:08.334Z,99.90
2022-10-26T01:03:37.949Z,99.90
2022-10-26T01:06:06.724Z,99.90
2022-10-26T01:08:34.187Z,99.90
2022-10-26T01:11:01.716Z,99.90
2022-10-26T01:13:33.829Z,99.90
2022-10-26T01:16:38.447Z,99.90
2022-10-26T01:19:21.804Z,99.90
2022-10-26T01:21:58.311Z,99.90
2022-10-26T01:25:12.336Z,99.90
2022-10-26T01:27:43.161Z,99.90
2022-10-26T01:30:20.543Z,99.90
2022-10-26T01:33:20.379Z,99.90
2022-10-26T01:36:10.930Z,99.90
2022-10-26T01:39:05.528Z,99.90
2022-10-26T01:41:59.489Z,99.90
2022-10-26T01:44:42.303Z,99.90
2022-10-26T01:47:15.844Z,99.90
2022-10-26T01:49:49.457Z,99.90
2022-10-26T01:52:19.663Z,99.90
2022-10-26T01:54:46.395Z,99.90
2022-10-26T01:57:18.924Z,99.90
2022-10-26T02:00:12.077Z,99.90
2022-10-26T02:03:20.271Z,99.90
2022-10-26T02:06:06.136Z,99.90
2022-10-26T02:08:47.160Z,99.90
2022-10-26T02:11:36.053Z,99.90
2022-10-26T02:17:09.808Z,99.90
2022-10-26T02:20:14.448Z,99.90
2022-10-26T02:22:51.224Z,99.90
2022-10-26T02:25:25.737Z,99.90
2022-10-26T02:28:00.181Z,99.90
2022-10-26T02:30:27.926Z,99.90
2022-10-26T02:32:57.995Z,99.90
2022-10-26T02:35:30.771Z,99.90
2022-10-26T02:38:02.490Z,99.90
2022-10-26T02:40:31.687Z,99.90
2022-10-26T02:43:05.474Z,99.90
2022-10-26T02:45:43.102Z,99.90
2022-10-26T02:48:10.483Z,99.90
2022-10-26T02:51:09.471Z,99.90
2022-10-26T02:53:45.726Z,99.90
2022-10-26T02:56:25.419Z,99.90
2022-10-26T02:58:59.621Z,99.90
2022-10-26T03:01:29.201Z,99.90
2022-10-26T03:03:59.875Z,99.90
2022-10-26T03:06:27.529Z,99.90
2022-10-26T03:08:54.377Z,99.90
2022-10-26T03:11:21.123Z,99.90
2022-10-26T03:13:47.820Z,99.90
2022-10-26T03:16:14.514Z,99.90
2022-10-26T03:18:41.318Z,99.90
2022-10-26T03:21:08.078Z,99.90
2022-10-26T03:23:34.787Z,99.90
2022-10-26T03:26:01.504Z,99.90
2022-10-26T03:28:28.195Z,99.90
2022-10-26T03:30:55.009Z,99.90
2022-10-26T03:33:25.532Z,99.90
2022-10-26T03:35:57.334Z,99.90
2022-10-26T03:38:24.456Z,99.90
2022-10-26T03:40:51.244Z,99.90
2022-10-26T03:43:18.122Z,99.90
2022-10-26T03:45:45.694Z,99.90
2022-10-26T03:48:12.568Z,99.90
2022-10-26T03:50:39.424Z,99.90
2022-10-26T03:53:07.289Z,99.90
2022-10-26T03:55:34.036Z,99.90
2022-10-26T03:58:00.742Z,99.90
2022-10-26T04:00:27.622Z,99.90
2022-10-26T04:03:00.098Z,99.90
2022-10-26T04:05:29.319Z,99.90
2022-10-26T04:08:00.110Z,99.90
2022-10-26T04:10:27.652Z,99.90
2022-10-26T04:12:55.596Z,99.90
2022-10-26T04:15:23.103Z,99.90
2022-10-26T04:17:57.258Z,99.90
2022-10-26T04:20:25.216Z,99.90
2022-10-26T04:23:05.166Z,99.90
2022-10-26T04:25:33.824Z,99.90
2022-10-26T04:28:03.413Z,99.90
2022-10-26T04:30:31.872Z,99.90
2022-10-26T04:32:58.553Z,99.90
2022-10-26T04:35:25.417Z,99.90
2022-10-26T04:37:57.386Z,99.90
2022-10-26T04:40:24.109Z,99.90
2022-10-26T04:42:51.178Z,99.90
2022-10-26T04:45:18.351Z,99.90
2022-10-26T04:47:45.114Z,99.90
2022-10-26T04:50:13.962Z,99.90
2022-10-26T04:52:41.213Z,99.90
2022-10-26T04:55:08.494Z,99.90
2022-10-26T04:57:36.200Z,99.90
2022-10-26T05:00:05.464Z,99.90
2022-10-26T05:02:32.263Z,99.90
2022-10-26T05:04:59.119Z,99.90
2022-10-26T05:07:26.089Z,99.90
2022-10-26T05:09:53.090Z,99.90
2022-10-26T05:12:20.251Z,99.90
2022-10-26T05:14:47.055Z,99.90
2022-10-26T05:17:13.976Z,99.90
2022-10-26T05:19:40.754Z,99.90
2022-10-26T05:22:07.725Z,99.90
2022-10-26T05:24:34.560Z,99.90
2022-10-26T05:27:01.359Z,99.90
2022-10-26T05:29:29.483Z,99.90
2022-10-26T05:31:56.181Z,99.90
2022-10-26T05:34:22.891Z,99.90
2022-10-26T05:36:52.467Z,99.90
2022-10-26T05:39:19.158Z,99.90
2022-10-26T05:41:45.843Z,99.90
2022-10-26T05:44:12.562Z,99.90
2022-10-26T05:46:39.308Z,99.90
2022-10-26T05:49:06.145Z,99.90
2022-10-26T05:51:34.450Z,99.90
2022-10-26T05:54:01.212Z,99.90
2022-10-26T05:56:36.604Z,99.90
2022-10-26T05:59:14.566Z,99.90
2022-10-26T06:02:09.405Z,99.90
2022-10-26T06:04:47.864Z,99.90
2022-10-26T06:07:20.755Z,99.90
2022-10-26T06:09:48.848Z,99.90
2022-10-26T06:12:19.292Z,99.90
2022-10-26T06:14:47.103Z,99.90
2022-10-26T06:17:39.326Z,99.90
2022-10-26T06:20:56.816Z,99.90
2022-10-26T06:23:51.681Z,99.90
2022-10-26T06:26:49.274Z,99.90
2022-10-26T06:29:49.918Z,99.90
2022-10-26T06:32:17.583Z,99.90
2022-10-26T06:34:49.300Z,99.90
2022-10-26T06:37:17.246Z,99.90
2022-10-26T06:39:50.029Z,99.90
2022-10-26T06:42:20.472Z,99.90
2022-10-26T06:44:47.658Z,99.90
2022-10-26T06:47:34.872Z,99.90
2022-10-26T06:50:22.874Z,99.90
2022-10-26T06:53:03.818Z,99.90
2022-10-26T06:55:43.469Z,99.90
2022-10-26T06:58:17.137Z,99.90
2022-10-26T07:00:48.006Z,99.90
2022-10-26T07:03:14.729Z,99.90
2022-10-26T07:05:43.337Z,99.90
2022-10-26T07:08:10.889Z,99.90
2022-10-26T07:10:39.106Z,99.90
2022-10-26T07:13:06.821Z,99.90
2022-10-26T07:15:35.802Z,99.90
2022-10-26T07:18:07.689Z,99.90
2022-10-26T07:20:40.586Z,99.90
2022-10-26T07:23:12.437Z,99.90
2022-10-26T07:25:40.519Z,99.90
2022-10-26T07:28:10.179Z,99.90
2022-10-26T07:30:39.221Z,99.90
2022-10-26T07:33:14.412Z,99.90
2022-10-26T07:35:41.298Z,99.90
2022-10-26T07:38:08.629Z,99.90
2022-10-26T07:40:38.003Z,99.90
2022-10-26T07:43:05.291Z,99.90
2022-10-26T07:45:32.210Z,99.90
2022-10-26T07:47:58.942Z,99.90
2022-10-26T07:50:26.121Z,99.90
2022-10-26T07:52:53.106Z,99.90
2022-10-26T07:55:20.447Z,99.90
2022-10-26T07:57:49.783Z,99.90
2022-10-26T08:00:21.617Z,99.90
2022-10-26T08:02:48.341Z,99.90
2022-10-26T08:05:15.106Z,99.90
2022-10-26T08:07:44.682Z,99.90
2022-10-26T08:10:12.792Z,99.90
2022-10-26T08:12:40.428Z,99.90
2022-10-26T08:15:08.579Z,99.90
2022-10-26T08:17:35.462Z,99.90
2022-10-26T08:20:02.269Z,99.90
2022-10-26T08:22:30.659Z,99.90
2022-10-26T08:24:57.489Z,99.90
2022-10-26T08:27:24.175Z,99.90
2022-10-26T08:29:50.882Z,99.90
2022-10-26T08:32:17.612Z,99.90
2022-10-26T08:34:44.307Z,99.90
2022-10-26T08:37:11.048Z,99.90
2022-10-26T08:39:37.773Z,99.90
2022-10-26T08:42:14.580Z,99.90
2022-10-26T08:44:58.174Z,99.90
2022-10-26T08:47:43.019Z,99.90
2022-10-26T08:50:25.156Z,99.90
2022-10-26T08:53:38.851Z,99.90
2022-10-26T08:56:23.617Z,99.90
2022-10-26T08:59:01.232Z,99.90
2022-10-26T09:01:31.893Z,99.90
2022-10-26T09:07:00.258Z,99.90
2022-10-26T09:09:47.406Z,99.90
2022-10-26T09:13:02.680Z,99.90
2022-10-26T09:16:13.442Z,99.90
2022-10-26T09:19:02.788Z,99.90
2022-10-26T09:21:44.880Z,99.90
2022-10-26T09:24:28.517Z,99.90
2022-10-26T09:27:28.614Z,99.90
2022-10-26T09:29:59.572Z,99.90
2022-10-26T09:32:45.065Z,99.90
2022-10-26T09:38:50.463Z,99.90
2022-10-26T09:41:49.915Z,99.90
2022-10-26T09:44:29.969Z,99.90
2022-10-26T09:47:31.657Z,99.90
2022-10-26T09:50:39.411Z,99.90
2022-10-26T09:53:06.412Z,99.90
2022-10-26T09:55:41.318Z,99.90
2022-10-26T09:58:26.807Z,99.90
2022-10-26T10:00:54.868Z,99.90
2022-10-26T10:03:28.322Z,99.90
2022-10-26T10:06:20.295Z,99.90
2022-10-26T10:09:13.925Z,99.90
2022-10-26T10:11:43.915Z,99.90
2022-10-26T10:14:17.700Z,99.90
2022-10-26T10:16:54.593Z,99.90
2022-10-26T10:19:28.526Z,99.90
2022-10-26T10:22:08.178Z,99.90
2022-10-26T10:24:42.861Z,99.90
2022-10-26T10:27:18.476Z,99.90
2022-10-26T10:29:49.800Z,99.90
2022-10-26T10:32:20.683Z,99.90
2022-10-26T10:34:52.459Z,99.90
2022-10-26T10:37:44.267Z,99.90
2022-10-26T10:40:24.470Z,99.90
2022-10-26T10:43:01.268Z,99.90
2022-10-26T10:45:30.884Z,99.90
2022-10-26T10:48:12.734Z,99.90
2022-10-26T10:51:12.957Z,99.90
2022-10-26T10:53:56.847Z,99.90
2022-10-26T10:56:48.864Z,99.90
2022-10-26T10:59:49.805Z,99.90
2022-10-26T11:03:04.268Z,99.90
2022-10-26T11:05:56.942Z,99.90
2022-10-26T11:08:32.371Z,99.90
2022-10-26T11:11:22.945Z,99.90
2022-10-26T11:13:55.073Z,99.90
2022-10-26T11:16:33.285Z,99.90
2022-10-26T11:19:17.595Z,99.90
2022-10-26T11:21:50.864Z,99.90
2022-10-26T11:24:31.738Z,99.90
2022-10-26T11:27:36.663Z,99.90
2022-10-26T11:30:07.644Z,99.90
2022-10-26T11:32:47.463Z,99.90
2022-10-26T11:35:29.030Z,99.90
2022-10-26T11:38:20.743Z,99.90
2022-10-26T11:41:10.037Z,99.90
2022-10-26T11:43:56.436Z,99.90
2022-10-26T11:46:55.390Z,99.90
2022-10-26T11:49:50.331Z,99.90
2022-10-26T11:52:30.222Z,99.90
2022-10-26T11:55:04.642Z,99.90
2022-10-26T11:57:37.534Z,99.90
2022-10-26T12:00:18.955Z,99.90
2022-10-26T12:03:27.700Z,99.90
2022-10-26T12:05:54.715Z,99.90
2022-10-26T12:08:41.841Z,99.90
2022-10-26T12:11:36.003Z,99.90
2022-10-26T12:14:12.850Z,99.90
2022-10-26T12:16:56.355Z,99.90
2022-10-26T12:19:44.060Z,99.90
2022-10-26T12:22:17.279Z,99.90
2022-10-26T12:25:20.450Z,99.90
2022-10-26T12:30:34.463Z,99.90
2022-10-26T12:33:06.578Z,99.90
2022-10-26T12:35:44.768Z,99.90
2022-10-26T12:38:33.799Z,99.90
2022-10-26T12:41:07.345Z,99.90
2022-10-26T12:43:40.979Z,99.90
2022-10-26T12:46:13.667Z,99.90
2022-10-26T12:48:48.107Z,99.90
2022-10-26T12:51:24.547Z,99.90
2022-10-26T12:54:10.622Z,99.90
2022-10-26T12:57:05.679Z,99.90
2022-10-26T13:00:02.939Z,99.90
2022-10-26T13:03:07.555Z,99.90
2022-10-26T13:06:38.225Z,99.90
2022-10-26T13:09:19.834Z,99.90
2022-10-26T13:11:52.475Z,99.90
2022-10-26T13:14:26.711Z,99.90
2022-10-26T13:16:54.052Z,99.90
2022-10-26T13:19:37.128Z,99.90
2022-10-26T13:22:04.170Z,99.90
2022-10-26T13:24:34.877Z,99.90
2022-10-26T13:27:08.054Z,99.90
2022-10-26T13:30:03.817Z,99.90
2022-10-26T13:32:35.430Z,99.90
2022-10-26T13:35:05.221Z,99.90
2022-10-26T13:37:35.315Z,99.90
2022-10-26T13:40:06.464Z,99.90
2022-10-26T13:42:47.733Z,99.90
2022-10-26T13:45:25.418Z,99.90
2022-10-26T13:48:37.724Z,90.50
2022-10-26T13:51:25.910Z,62.50
2022-10-26T13:54:03.178Z,57.60
2022-10-26T13:56:41.316Z,56.80
2022-10-26T13:59:13.740Z,50.30
2022-10-26T14:01:40.538Z,50.20
2022-10-26T14:04:25.176Z,49.80
2022-10-26T14:06:54.592Z,48.50
2022-10-26T14:09:23.007Z,45.00
2022-10-26T14:11:55.358Z,42.40
2022-10-26T14:14:27.201Z,41.30
2022-10-26T14:16:55.018Z,39.90
2022-10-26T14:19:29.823Z,38.40
2022-10-26T14:21:58.322Z,36.90
2022-10-26T14:24:46.964Z,36.50
2022-10-26T14:27:38.439Z,37.20
2022-10-26T14:30:27.334Z,36.70
2022-10-26T14:32:54.838Z,35.70
2022-10-26T14:35:33.423Z,37.50
2022-10-26T14:38:17.131Z,39.90
2022-10-26T14:40:45.028Z,43.40
2022-10-26T14:43:21.407Z,48.80
2022-10-26T14:45:51.440Z,54.20
2022-10-26T14:48:36.523Z,58.40
2022-10-26T14:51:17.914Z,62.80
2022-10-26T14:53:51.352Z,66.60
2022-10-26T14:56:36.054Z,69.70
2022-10-26T14:59:26.244Z,72.40
2022-10-26T15:02:15.981Z,75.70
2022-10-26T15:05:02.833Z,81.30
2022-10-26T15:07:38.079Z,87.30
2022-10-26T15:10:06.030Z,91.20
2022-10-26T15:12:37.686Z,93.20
2022-10-26T15:15:17.587Z,95.20
2022-10-26T15:18:05.031Z,97.60
2022-10-26T15:20:31.997Z,99.90
2022-10-26T15:23:03.918Z,99.90
2022-10-26T15:25:34.365Z,99.90
2022-10-26T15:28:31.049Z,99.90
2022-10-26T15:31:29.030Z,99.90
2022-10-26T15:33:55.637Z,99.90
2022-10-26T15:36:27.111Z,99.90
2022-10-26T15:38:55.471Z,99.90
2022-10-26T15:41:26.355Z,99.90
2022-10-26T15:43:56.627Z,99.90
2022-10-26T15:46:27.270Z,99.90
2022-10-26T15:49:00.534Z,99.90
2022-10-26T15:51:29.872Z,99.90
2022-10-26T15:54:04.201Z,99.90
2022-10-26T15:56:31.807Z,99.90
2022-10-26T15:58:59.152Z,99.90
2022-10-26T16:01:29.333Z,99.90
2022-10-26T16:03:56.464Z,99.90
2022-10-26T16:06:35.222Z,99.90
2022-10-26T16:09:05.601Z,99.90
2022-10-26T16:11:33.305Z,99.90
2022-10-26T16:14:02.856Z,99.90
2022-10-26T16:16:31.249Z,99.90
2022-10-26T16:19:18.314Z,99.90
2022-10-26T16:21:44.932Z,99.90
2022-10-26T16:24:11.648Z,99.90
2022-10-26T16:26:38.439Z,99.90
2022-10-26T16:29:05.163Z,99.90
2022-10-26T16:31:31.854Z,99.90
2022-10-26T16:34:01.676Z,99.90
2022-10-26T16:36:33.961Z,99.90
2022-10-26T16:41:33.070Z,99.90
2022-10-26T16:43:59.821Z,99.90
2022-10-26T16:46:26.772Z,99.90
2022-10-26T16:48:53.467Z,99.90
2022-10-26T16:51:24.401Z,99.90
2022-10-26T16:53:53.930Z,99.90
2022-10-26T16:56:28.238Z,99.90
2022-10-26T16:58:55.033Z,99.90
2022-10-26T17:01:22.212Z,99.90
2022-10-26T17:03:51.057Z,99.90
2022-10-26T17:06:18.818Z,99.90
2022-10-26T17:08:45.879Z,99.90
2022-10-26T17:11:17.351Z,99.90
2022-10-26T17:13:44.617Z,99.90
2022-10-26T17:16:19.008Z,99.90
2022-10-26T17:18:47.201Z,99.90
2022-10-26T17:21:16.350Z,99.90
2022-10-26T17:23:43.295Z,99.90
2022-10-26T17:26:13.550Z,99.90
2022-10-26T17:28:40.325Z,99.90
2022-10-26T17:31:15.210Z,99.90
2022-10-26T17:33:44.946Z,99.90
2022-10-26T17:36:13.564Z,99.90
2022-10-26T17:38:42.691Z,99.90
2022-10-26T17:41:13.222Z,99.90
2022-10-26T17:43:41.611Z,99.90
2022-10-26T17:46:13.802Z,99.90
2022-10-26T17:48:40.810Z,99.90
2022-10-26T17:51:13.508Z,99.90
2022-10-26T17:53:59.461Z,99.90
2022-10-26T17:56:30.110Z,99.90
2022-10-26T17:59:03.207Z,99.90
2022-10-26T18:01:31.678Z,99.90
2022-10-26T18:03:59.453Z,99.90
2022-10-26T18:06:26.424Z,99.90
2022-10-26T18:08:53.161Z,99.90
2022-10-26T18:11:26.863Z,99.90
2022-10-26T18:13:56.484Z,99.90
2022-10-26T18:16:25.731Z,99.90
2022-10-26T18:19:02.085Z,99.90
2022-10-26T18:21:32.846Z,99.90
2022-10-26T18:23:59.749Z,99.90
2022-10-26T18:26:29.887Z,99.90
2022-10-26T18:28:58.513Z,99.90
2022-10-26T18:31:28.144Z,99.90
2022-10-26T18:34:01.307Z,99.90
2022-10-26T18:36:29.551Z,99.90
2022-10-26T18:38:56.423Z,99.90
2022-10-26T18:41:25.357Z,99.90
2022-10-26T18:43:54.949Z,99.90
2022-10-26T18:46:25.206Z,99.90
2022-10-26T18:48:53.157Z,99.90
2022-10-26T18:51:28.555Z,99.90
2022-10-26T18:53:57.497Z,99.90
2022-10-26T18:56:25.250Z,99.90
2022-10-26T18:58:56.958Z,99.90
2022-10-26T19:01:30.741Z,99.90
2022-10-26T19:04:07.389Z,99.90
2022-10-26T19:06:40.771Z,99.90
2022-10-26T19:09:09.937Z,99.90
2022-10-26T19:11:37.764Z,99.90
2022-10-26T19:14:05.210Z,99.90
2022-10-26T19:16:45.251Z,99.90
2022-10-26T19:19:14.547Z,99.90
2022-10-26T19:21:41.311Z,99.90
2022-10-26T19:24:17.075Z,99.90
2022-10-26T19:26:45.632Z,99.90
2022-10-26T19:29:16.133Z,99.90
2022-10-26T19:31:45.668Z,99.90
2022-10-26T19:34:15.278Z,99.90
2022-10-26T19:36:44.723Z,99.90
2022-10-26T19:39:16.909Z,99.90
2022-10-26T19:41:45.530Z,99.90
2022-10-26T19:44:13.919Z,99.90
2022-10-26T19:46:43.219Z,99.90
2022-10-26T19:49:09.972Z,99.90
2022-10-26T19:51:36.746Z,99.90
2022-10-26T19:54:05.871Z,99.90
2022-10-26T19:56:34.242Z,99.90
2022-10-26T19:59:01.477Z,99.90
2022-10-26T20:01:28.660Z,99.90
2022-10-26T20:03:55.548Z,99.90
2022-10-26T20:06:22.270Z,99.90
2022-10-26T20:08:50.071Z,99.90
2022-10-26T20:11:18.438Z,99.90
2022-10-26T20:13:47.321Z,99.90
2022-10-26T20:16:16.345Z,99.90
2022-10-26T20:18:47.664Z,99.90
2022-10-26T20:21:16.863Z,99.90
2022-10-26T20:23:44.858Z,99.90
2022-10-26T20:26:19.608Z,99.90
2022-10-26T20:28:51.361Z,99.90
2022-10-26T20:31:18.423Z,99.90
2022-10-26T20:33:45.172Z,99.90
2022-10-26T20:36:11.934Z,99.90
2022-10-26T20:38:39.860Z,99.90
2022-10-26T20:41:14.591Z,99.90
2022-10-26T20:43:41.978Z,99.90
2022-10-26T20:46:28.209Z,99.90
2022-10-26T20:48:55.411Z,99.90
2022-10-26T20:51:56.771Z,99.90
2022-10-26T20:54:41.343Z,99.90
2022-10-26T20:57:15.501Z,99.90
2022-10-26T20:59:53.705Z,99.90
2022-10-26T21:02:22.147Z,99.90
2022-10-26T21:04:48.976Z,99.90
2022-10-26T21:07:15.672Z,99.90
2022-10-26T21:09:42.526Z,99.90
2022-10-26T21:12:09.250Z,99.90
2022-10-26T21:14:40.497Z,99.90
2022-10-26T21:17:08.552Z,99.90
2022-10-26T21:19:35.522Z,99.90
2022-10-26T21:22:02.536Z,99.90
2022-10-26T21:24:29.289Z,99.90
2022-10-26T21:26:56.080Z,99.90
2022-10-26T21:29:22.815Z,99.90
2022-10-26T21:31:49.512Z,99.90
2022-10-26T21:34:16.202Z,99.90
2022-10-26T21:36:43.079Z,99.90
2022-10-26T21:39:11.099Z,99.90
2022-10-26T21:41:38.037Z,99.90
2022-10-26T21:44:09.334Z,99.90
2022-10-26T21:46:38.489Z,99.90
2022-10-26T21:49:06.228Z,99.90
2022-10-26T21:51:34.842Z,99.90
2022-10-26T21:54:01.889Z,99.90
2022-10-26T21:56:28.589Z,99.90
2022-10-26T21:58:55.291Z,99.90
2022-10-26T22:01:23.271Z,99.90
2022-10-26T22:03:50.227Z,99.90
2022-10-26T22:08:51.647Z,99.90
2022-10-26T22:11:24.455Z,99.90
2022-10-26T22:13:52.369Z,99.90
2022-10-26T22:16:28.826Z,99.90
2022-10-26T22:18:59.190Z,99.90
2022-10-26T22:21:27.429Z,99.90
2022-10-26T22:23:54.808Z,99.90
2022-10-26T22:26:24.580Z,99.90
2022-10-26T22:28:55.145Z,99.90
2022-10-26T22:34:04.779Z,99.90
2022-10-26T22:36:34.560Z,99.90
2022-10-26T22:39:01.387Z,99.90
2022-10-26T22:41:28.133Z,99.90
2022-10-26T22:43:54.826Z,99.90
2022-10-26T22:46:27.685Z,99.90
2022-10-26T22:48:58.052Z,99.90
2022-10-26T22:51:27.278Z,99.90
2022-10-26T22:53:57.208Z,99.90
2022-10-26T22:58:54.263Z,99.90
2022-10-26T23:01:25.460Z,99.90
2022-10-26T23:03:55.972Z,99.90
2022-10-26T23:06:27.150Z,99.90
2022-10-26T23:08:54.034Z,99.90
2022-10-26T23:11:25.241Z,99.90
2022-10-26T23:13:57.011Z,99.90
2022-10-26T23:16:24.251Z,99.90
2022-10-26T23:18:53.289Z,99.90
2022-10-26T23:21:22.475Z,99.90
2022-10-26T23:23:49.254Z,99.90
2022-10-26T23:26:19.206Z,99.90
2022-10-26T23:28:46.249Z,99.90
2022-10-26T23:31:20.034Z,99.90
2022-10-26T23:33:49.587Z,99.90
2022-10-26T23:36:16.399Z,99.90
2022-10-26T23:38:43.127Z,99.90
2022-10-26T23:41:12.797Z,99.90
2022-10-26T23:43:40.530Z,99.90
2022-10-26T23:46:07.523Z,99.90
2022-10-26T23:48:34.459Z,99.90
2022-10-26T23:51:01.192Z,99.90
2022-10-26T23:53:28.011Z,99.90
2022-10-26T23:55:54.857Z,99.90
2022-10-26T23:58:21.593Z,99.90
